sensor_id;sensor_type;location;lat;lon;timestamp;P1;durP1;ratioP1;P2;durP2;ratioP2
15035;SDS011;7615;48.574;13.474;2023-07-13T00:00:47;9.68;;;5.20;;
15035;SDS011;7615;48.574;13.474;2023-07-13T00:03:14;7.40;;;5.38;;
15035;SDS011;7615;48.574;13.474;2023-07-13T00:05:43;8.27;;;5.15;;
15035;SDS011;7615;48.574;13.474;2023-07-13T00:08:10;5.75;;;5.15;;
15035;SDS011;7615;48.574;13.474;2023-07-13T00:10:40;12.05;;;5.28;;
15035;SDS011;7615;48.574;13.474;2023-07-13T00:13:08;9.75;;;5.10;;
15035;SDS011;7615;48.574;13.474;2023-07-13T00:15:35;6.53;;;5.40;;
15035;SDS011;7615;48.574;13.474;2023-07-13T00:18:02;8.90;;;5.88;;
15035;SDS011;7615;48.574;13.474;2023-07-13T00:20:29;7.70;;;6.50;;
15035;SDS011;7615;48.574;13.474;2023-07-13T00:22:59;6.93;;;6.15;;
15035;SDS011;7615;48.574;13.474;2023-07-13T00:25:27;11.13;;;7.20;;
15035;SDS011;7615;48.574;13.474;2023-07-13T00:27:54;11.65;;;7.05;;
15035;SDS011;7615;48.574;13.474;2023-07-13T00:30:21;8.57;;;6.63;;
15035;SDS011;7615;48.574;13.474;2023-07-13T00:32:48;9.20;;;7.20;;
15035;SDS011;7615;48.574;13.474;2023-07-13T00:35:16;10.32;;;7.53;;
15035;SDS011;7615;48.574;13.474;2023-07-13T00:37:43;7.68;;;6.80;;
15035;SDS011;7615;48.574;13.474;2023-07-13T00:40:13;9.32;;;6.90;;
15035;SDS011;7615;48.574;13.474;2023-07-13T00:42:41;8.88;;;7.97;;
15035;SDS011;7615;48.574;13.474;2023-07-13T00:48:08;11.02;;;7.55;;
15035;SDS011;7615;48.574;13.474;2023-07-13T00:50:36;11.85;;;7.80;;
15035;SDS011;7615;48.574;13.474;2023-07-13T00:53:03;14.73;;;7.85;;
15035;SDS011;7615;48.574;13.474;2023-07-13T00:55:31;12.57;;;7.88;;
15035;SDS011;7615;48.574;13.474;2023-07-13T00:57:59;9.07;;;7.45;;
15035;SDS011;7615;48.574;13.474;2023-07-13T01:00:27;9.57;;;7.40;;
15035;SDS011;7615;48.574;13.474;2023-07-13T01:02:56;14.80;;;7.38;;
15035;SDS011;7615;48.574;13.474;2023-07-13T01:05:24;8.70;;;7.45;;
15035;SDS011;7615;48.574;13.474;2023-07-13T01:07:52;9.40;;;6.57;;
15035;SDS011;7615;48.574;13.474;2023-07-13T01:10:21;8.60;;;6.75;;
15035;SDS011;7615;48.574;13.474;2023-07-13T01:12:50;9.07;;;6.93;;
15035;SDS011;7615;48.574;13.474;2023-07-13T01:15:36;8.43;;;6.40;;
15035;SDS011;7615;48.574;13.474;2023-07-13T01:18:05;11.00;;;8.00;;
15035;SDS011;7615;48.574;13.474;2023-07-13T01:20:35;9.15;;;6.95;;
15035;SDS011;7615;48.574;13.474;2023-07-13T01:23:05;7.90;;;7.13;;
15035;SDS011;7615;48.574;13.474;2023-07-13T01:25:34;11.07;;;7.20;;
15035;SDS011;7615;48.574;13.474;2023-07-13T01:28:01;9.20;;;7.13;;
15035;SDS011;7615;48.574;13.474;2023-07-13T01:30:28;11.38;;;7.35;;
15035;SDS011;7615;48.574;13.474;2023-07-13T01:32:56;9.75;;;6.72;;
15035;SDS011;7615;48.574;13.474;2023-07-13T01:35:23;9.73;;;7.78;;
15035;SDS011;7615;48.574;13.474;2023-07-13T01:37:52;14.32;;;7.55;;
15035;SDS011;7615;48.574;13.474;2023-07-13T01:40:20;8.90;;;6.88;;
15035;SDS011;7615;48.574;13.474;2023-07-13T01:42:47;9.90;;;6.72;;
15035;SDS011;7615;48.574;13.474;2023-07-13T01:45:14;10.82;;;7.15;;
15035;SDS011;7615;48.574;13.474;2023-07-13T01:47:41;8.57;;;7.70;;
15035;SDS011;7615;48.574;13.474;2023-07-13T01:50:08;12.10;;;7.35;;
15035;SDS011;7615;48.574;13.474;2023-07-13T01:52:36;10.00;;;7.28;;
15035;SDS011;7615;48.574;13.474;2023-07-13T01:55:03;9.10;;;6.97;;
15035;SDS011;7615;48.574;13.474;2023-07-13T01:57:32;8.80;;;6.72;;
15035;SDS011;7615;48.574;13.474;2023-07-13T01:59:59;7.45;;;6.63;;
15035;SDS011;7615;48.574;13.474;2023-07-13T02:02:29;8.20;;;6.38;;
15035;SDS011;7615;48.574;13.474;2023-07-13T02:04:56;8.30;;;6.40;;
15035;SDS011;7615;48.574;13.474;2023-07-13T02:07:23;10.55;;;6.43;;
15035;SDS011;7615;48.574;13.474;2023-07-13T02:09:50;9.70;;;6.00;;
15035;SDS011;7615;48.574;13.474;2023-07-13T02:12:17;7.43;;;6.07;;
15035;SDS011;7615;48.574;13.474;2023-07-13T02:14:45;6.53;;;5.70;;
15035;SDS011;7615;48.574;13.474;2023-07-13T02:17:13;9.15;;;5.60;;
15035;SDS011;7615;48.574;13.474;2023-07-13T02:19:40;10.93;;;5.38;;
15035;SDS011;7615;48.574;13.474;2023-07-13T02:22:07;6.47;;;5.40;;
15035;SDS011;7615;48.574;13.474;2023-07-13T02:24:33;6.63;;;5.38;;
15035;SDS011;7615;48.574;13.474;2023-07-13T02:27:00;9.02;;;5.50;;
15035;SDS011;7615;48.574;13.474;2023-07-13T02:29:27;7.88;;;5.70;;
15035;SDS011;7615;48.574;13.474;2023-07-13T02:31:55;8.77;;;5.30;;
15035;SDS011;7615;48.574;13.474;2023-07-13T02:34:22;7.18;;;4.93;;
15035;SDS011;7615;48.574;13.474;2023-07-13T02:36:49;8.93;;;5.10;;
15035;SDS011;7615;48.574;13.474;2023-07-13T02:39:16;8.32;;;5.28;;
15035;SDS011;7615;48.574;13.474;2023-07-13T02:41:43;7.97;;;4.72;;
15035;SDS011;7615;48.574;13.474;2023-07-13T02:44:11;8.63;;;5.18;;
15035;SDS011;7615;48.574;13.474;2023-07-13T02:46:39;6.72;;;5.00;;
15035;SDS011;7615;48.574;13.474;2023-07-13T02:49:07;5.18;;;4.60;;
15035;SDS011;7615;48.574;13.474;2023-07-13T02:51:34;7.03;;;5.20;;
15035;SDS011;7615;48.574;13.474;2023-07-13T02:54:01;6.80;;;4.43;;
15035;SDS011;7615;48.574;13.474;2023-07-13T02:56:29;8.57;;;5.45;;
15035;SDS011;7615;48.574;13.474;2023-07-13T02:58:58;8.00;;;5.03;;
15035;SDS011;7615;48.574;13.474;2023-07-13T03:01:25;9.75;;;4.20;;
15035;SDS011;7615;48.574;13.474;2023-07-13T03:03:52;4.63;;;4.05;;
15035;SDS011;7615;48.574;13.474;2023-07-13T03:06:20;7.45;;;3.80;;
15035;SDS011;7615;48.574;13.474;2023-07-13T03:08:47;4.20;;;3.80;;
15035;SDS011;7615;48.574;13.474;2023-07-13T03:11:16;5.28;;;3.88;;
15035;SDS011;7615;48.574;13.474;2023-07-13T03:13:44;5.78;;;4.20;;
15035;SDS011;7615;48.574;13.474;2023-07-13T03:16:12;10.20;;;3.95;;
15035;SDS011;7615;48.574;13.474;2023-07-13T03:18:40;4.93;;;4.18;;
15035;SDS011;7615;48.574;13.474;2023-07-13T03:21:08;6.10;;;3.55;;
15035;SDS011;7615;48.574;13.474;2023-07-13T03:23:36;4.55;;;3.65;;
15035;SDS011;7615;48.574;13.474;2023-07-13T03:26:04;6.40;;;3.75;;
15035;SDS011;7615;48.574;13.474;2023-07-13T03:28:33;7.82;;;4.30;;
15035;SDS011;7615;48.574;13.474;2023-07-13T03:31:01;5.32;;;3.67;;
15035;SDS011;7615;48.574;13.474;2023-07-13T03:33:30;6.30;;;4.00;;
15035;SDS011;7615;48.574;13.474;2023-07-13T03:35:57;4.30;;;3.72;;
15035;SDS011;7615;48.574;13.474;2023-07-13T03:38:25;6.20;;;3.97;;
15035;SDS011;7615;48.574;13.474;2023-07-13T03:40:53;5.15;;;4.15;;
15035;SDS011;7615;48.574;13.474;2023-07-13T03:43:20;5.35;;;3.80;;
15035;SDS011;7615;48.574;13.474;2023-07-13T03:45:47;5.32;;;4.10;;
15035;SDS011;7615;48.574;13.474;2023-07-13T03:48:14;5.47;;;4.15;;
15035;SDS011;7615;48.574;13.474;2023-07-13T03:50:41;5.32;;;4.00;;
15035;SDS011;7615;48.574;13.474;2023-07-13T03:53:08;6.40;;;5.13;;
15035;SDS011;7615;48.574;13.474;2023-07-13T03:55:35;6.90;;;4.32;;
15035;SDS011;7615;48.574;13.474;2023-07-13T04:00:52;6.90;;;4.57;;
15035;SDS011;7615;48.574;13.474;2023-07-13T04:03:19;5.65;;;4.25;;
15035;SDS011;7615;48.574;13.474;2023-07-13T04:05:46;4.32;;;3.88;;
15035;SDS011;7615;48.574;13.474;2023-07-13T04:08:13;5.53;;;4.35;;
15035;SDS011;7615;48.574;13.474;2023-07-13T04:10:40;7.53;;;4.10;;
15035;SDS011;7615;48.574;13.474;2023-07-13T04:13:07;5.70;;;3.90;;
15035;SDS011;7615;48.574;13.474;2023-07-13T04:15:35;7.30;;;3.97;;
15035;SDS011;7615;48.574;13.474;2023-07-13T04:18:02;5.15;;;3.88;;
15035;SDS011;7615;48.574;13.474;2023-07-13T04:20:29;8.13;;;3.97;;
15035;SDS011;7615;48.574;13.474;2023-07-13T04:22:56;6.25;;;3.70;;
15035;SDS011;7615;48.574;13.474;2023-07-13T04:25:23;5.45;;;3.90;;
15035;SDS011;7615;48.574;13.474;2023-07-13T04:27:50;7.57;;;4.30;;
15035;SDS011;7615;48.574;13.474;2023-07-13T04:30:17;6.28;;;3.65;;
15035;SDS011;7615;48.574;13.474;2023-07-13T04:32:49;4.80;;;3.92;;
15035;SDS011;7615;48.574;13.474;2023-07-13T04:35:17;7.28;;;3.92;;
15035;SDS011;7615;48.574;13.474;2023-07-13T04:37:45;6.38;;;3.70;;
15035;SDS011;7615;48.574;13.474;2023-07-13T04:40:12;4.38;;;3.20;;
15035;SDS011;7615;48.574;13.474;2023-07-13T04:42:39;4.05;;;3.47;;
15035;SDS011;7615;48.574;13.474;2023-07-13T04:45:06;4.80;;;3.63;;
15035;SDS011;7615;48.574;13.474;2023-07-13T04:54:07;4.75;;;3.17;;
15035;SDS011;7615;48.574;13.474;2023-07-13T04:57:01;5.95;;;3.60;;
15035;SDS011;7615;48.574;13.474;2023-07-13T04:59:29;6.20;;;3.80;;
15035;SDS011;7615;48.574;13.474;2023-07-13T05:01:56;5.20;;;3.38;;
15035;SDS011;7615;48.574;13.474;2023-07-13T05:04:25;3.95;;;2.53;;
15035;SDS011;7615;48.574;13.474;2023-07-13T05:06:51;3.45;;;2.78;;
15035;SDS011;7615;48.574;13.474;2023-07-13T05:09:18;4.55;;;3.05;;
15035;SDS011;7615;48.574;13.474;2023-07-13T05:11:45;3.22;;;2.67;;
15035;SDS011;7615;48.574;13.474;2023-07-13T05:14:12;5.80;;;2.80;;
15035;SDS011;7615;48.574;13.474;2023-07-13T05:16:40;8.57;;;2.80;;
15035;SDS011;7615;48.574;13.474;2023-07-13T05:19:07;4.63;;;2.53;;
15035;SDS011;7615;48.574;13.474;2023-07-13T05:21:35;4.47;;;2.72;;
15035;SDS011;7615;48.574;13.474;2023-07-13T05:24:02;2.90;;;2.55;;
15035;SDS011;7615;48.574;13.474;2023-07-13T05:26:29;5.25;;;2.97;;
15035;SDS011;7615;48.574;13.474;2023-07-13T05:28:57;4.60;;;2.47;;
15035;SDS011;7615;48.574;13.474;2023-07-13T05:31:23;3.45;;;2.25;;
15035;SDS011;7615;48.574;13.474;2023-07-13T05:33:50;2.63;;;2.40;;
15035;SDS011;7615;48.574;13.474;2023-07-13T05:36:17;2.90;;;2.25;;
15035;SDS011;7615;48.574;13.474;2023-07-13T05:38:46;3.72;;;1.90;;
15035;SDS011;7615;48.574;13.474;2023-07-13T05:41:13;4.22;;;2.10;;
15035;SDS011;7615;48.574;13.474;2023-07-13T05:43:39;4.28;;;2.40;;
15035;SDS011;7615;48.574;13.474;2023-07-13T05:46:06;2.67;;;2.47;;
15035;SDS011;7615;48.574;13.474;2023-07-13T05:48:33;6.07;;;2.88;;
15035;SDS011;7615;48.574;13.474;2023-07-13T05:51:00;3.03;;;2.13;;
15035;SDS011;7615;48.574;13.474;2023-07-13T05:53:27;8.27;;;2.47;;
15035;SDS011;7615;48.574;13.474;2023-07-13T05:55:56;3.42;;;2.80;;
15035;SDS011;7615;48.574;13.474;2023-07-13T05:58:23;4.05;;;3.15;;
15035;SDS011;7615;48.574;13.474;2023-07-13T06:00:57;5.45;;;2.58;;
15035;SDS011;7615;48.574;13.474;2023-07-13T06:03:26;3.20;;;2.30;;
15035;SDS011;7615;48.574;13.474;2023-07-13T06:05:53;4.22;;;2.80;;
15035;SDS011;7615;48.574;13.474;2023-07-13T06:08:20;2.75;;;2.55;;
15035;SDS011;7615;48.574;13.474;2023-07-13T06:10:47;4.07;;;2.95;;
15035;SDS011;7615;48.574;13.474;2023-07-13T06:13:15;6.18;;;3.03;;
15035;SDS011;7615;48.574;13.474;2023-07-13T06:15:47;5.07;;;2.80;;
15035;SDS011;7615;48.574;13.474;2023-07-13T06:18:14;9.35;;;3.05;;
15035;SDS011;7615;48.574;13.474;2023-07-13T06:20:41;3.88;;;2.72;;
15035;SDS011;7615;48.574;13.474;2023-07-13T06:23:08;5.32;;;2.92;;
15035;SDS011;7615;48.574;13.474;2023-07-13T06:25:35;4.07;;;2.95;;
15035;SDS011;7615;48.574;13.474;2023-07-13T06:28:02;5.40;;;3.28;;
15035;SDS011;7615;48.574;13.474;2023-07-13T06:30:30;4.18;;;3.00;;
15035;SDS011;7615;48.574;13.474;2023-07-13T06:32:58;4.72;;;2.53;;
15035;SDS011;7615;48.574;13.474;2023-07-13T06:35:25;2.90;;;2.70;;
15035;SDS011;7615;48.574;13.474;2023-07-13T06:37:52;5.65;;;3.15;;
15035;SDS011;7615;48.574;13.474;2023-07-13T06:40:18;9.60;;;3.25;;
15035;SDS011;7615;48.574;13.474;2023-07-13T06:42:45;6.75;;;3.58;;
15035;SDS011;7615;48.574;13.474;2023-07-13T06:45:14;7.45;;;3.13;;
15035;SDS011;7615;48.574;13.474;2023-07-13T06:47:43;6.32;;;3.33;;
15035;SDS011;7615;48.574;13.474;2023-07-13T06:50:10;6.20;;;3.40;;
15035;SDS011;7615;48.574;13.474;2023-07-13T06:52:37;6.10;;;3.13;;
15035;SDS011;7615;48.574;13.474;2023-07-13T06:55:04;6.07;;;3.55;;
15035;SDS011;7615;48.574;13.474;2023-07-13T06:57:32;6.82;;;3.83;;
15035;SDS011;7615;48.574;13.474;2023-07-13T06:59:59;5.85;;;3.50;;
15035;SDS011;7615;48.574;13.474;2023-07-13T07:02:26;4.68;;;3.63;;
15035;SDS011;7615;48.574;13.474;2023-07-13T07:04:55;4.95;;;3.53;;
15035;SDS011;7615;48.574;13.474;2023-07-13T07:07:23;5.10;;;3.70;;
15035;SDS011;7615;48.574;13.474;2023-07-13T07:09:50;8.30;;;3.95;;
15035;SDS011;7615;48.574;13.474;2023-07-13T07:12:17;5.78;;;4.10;;
15035;SDS011;7615;48.574;13.474;2023-07-13T07:14:45;5.88;;;4.03;;
15035;SDS011;7615;48.574;13.474;2023-07-13T07:17:12;6.75;;;4.45;;
15035;SDS011;7615;48.574;13.474;2023-07-13T07:19:39;5.60;;;4.53;;
15035;SDS011;7615;48.574;13.474;2023-07-13T07:22:08;8.15;;;4.20;;
15035;SDS011;7615;48.574;13.474;2023-07-13T07:24:34;6.25;;;3.95;;
15035;SDS011;7615;48.574;13.474;2023-07-13T07:27:02;5.10;;;3.78;;
15035;SDS011;7615;48.574;13.474;2023-07-13T07:29:30;5.97;;;3.83;;
15035;SDS011;7615;48.574;13.474;2023-07-13T07:31:58;6.65;;;3.97;;
15035;SDS011;7615;48.574;13.474;2023-07-13T07:34:25;4.57;;;3.70;;
15035;SDS011;7615;48.574;13.474;2023-07-13T07:36:54;7.68;;;3.80;;
15035;SDS011;7615;48.574;13.474;2023-07-13T07:39:24;6.30;;;3.90;;
15035;SDS011;7615;48.574;13.474;2023-07-13T07:41:51;5.32;;;3.58;;
15035;SDS011;7615;48.574;13.474;2023-07-13T07:44:18;4.55;;;3.55;;
15035;SDS011;7615;48.574;13.474;2023-07-13T07:46:46;10.93;;;3.90;;
15035;SDS011;7615;48.574;13.474;2023-07-13T07:49:13;5.93;;;3.58;;
15035;SDS011;7615;48.574;13.474;2023-07-13T07:51:40;6.38;;;3.47;;
15035;SDS011;7615;48.574;13.474;2023-07-13T07:54:11;4.65;;;3.47;;
15035;SDS011;7615;48.574;13.474;2023-07-13T07:56:39;5.13;;;3.40;;
15035;SDS011;7615;48.574;13.474;2023-07-13T07:59:06;4.72;;;3.10;;
15035;SDS011;7615;48.574;13.474;2023-07-13T08:01:33;4.72;;;3.20;;
15035;SDS011;7615;48.574;13.474;2023-07-13T08:04:00;5.35;;;3.40;;
15035;SDS011;7615;48.574;13.474;2023-07-13T08:06:27;5.13;;;3.15;;
15035;SDS011;7615;48.574;13.474;2023-07-13T08:08:54;3.47;;;2.90;;
15035;SDS011;7615;48.574;13.474;2023-07-13T08:11:21;6.32;;;3.00;;
15035;SDS011;7615;48.574;13.474;2023-07-13T08:13:50;4.72;;;3.00;;
15035;SDS011;7615;48.574;13.474;2023-07-13T08:16:17;5.72;;;3.65;;
15035;SDS011;7615;48.574;13.474;2023-07-13T08:18:44;4.60;;;3.38;;
15035;SDS011;7615;48.574;13.474;2023-07-13T08:21:11;3.65;;;3.35;;
15035;SDS011;7615;48.574;13.474;2023-07-13T08:23:38;5.22;;;3.22;;
15035;SDS011;7615;48.574;13.474;2023-07-13T08:26:05;5.93;;;3.17;;
15035;SDS011;7615;48.574;13.474;2023-07-13T08:28:32;4.15;;;3.20;;
15035;SDS011;7615;48.574;13.474;2023-07-13T08:31:01;3.90;;;3.45;;
15035;SDS011;7615;48.574;13.474;2023-07-13T08:33:29;5.57;;;3.03;;
15035;SDS011;7615;48.574;13.474;2023-07-13T08:35:56;3.95;;;3.10;;
15035;SDS011;7615;48.574;13.474;2023-07-13T08:38:23;4.72;;;3.05;;
15035;SDS011;7615;48.574;13.474;2023-07-13T08:40:52;3.22;;;2.40;;
15035;SDS011;7615;48.574;13.474;2023-07-13T08:43:23;3.72;;;3.00;;
15035;SDS011;7615;48.574;13.474;2023-07-13T08:45:53;8.23;;;2.92;;
15035;SDS011;7615;48.574;13.474;2023-07-13T08:48:25;5.10;;;3.05;;
15035;SDS011;7615;48.574;13.474;2023-07-13T08:50:55;4.97;;;2.70;;
15035;SDS011;7615;48.574;13.474;2023-07-13T08:53:54;5.35;;;2.75;;
15035;SDS011;7615;48.574;13.474;2023-07-13T08:56:25;6.47;;;2.88;;
15035;SDS011;7615;48.574;13.474;2023-07-13T08:58:56;5.93;;;2.78;;
15035;SDS011;7615;48.574;13.474;2023-07-13T09:01:44;2.85;;;2.42;;
15035;SDS011;7615;48.574;13.474;2023-07-13T09:04:42;4.35;;;2.95;;
15035;SDS011;7615;48.574;13.474;2023-07-13T09:07:17;5.28;;;2.40;;
15035;SDS011;7615;48.574;13.474;2023-07-13T09:09:57;4.53;;;2.90;;
15035;SDS011;7615;48.574;13.474;2023-07-13T09:12:39;3.58;;;2.70;;
15035;SDS011;7615;48.574;13.474;2023-07-13T09:15:17;7.05;;;2.80;;
15035;SDS011;7615;48.574;13.474;2023-07-13T09:17:52;3.08;;;2.50;;
15035;SDS011;7615;48.574;13.474;2023-07-13T09:20:24;4.15;;;2.60;;
15035;SDS011;7615;48.574;13.474;2023-07-13T09:22:54;7.70;;;3.25;;
15035;SDS011;7615;48.574;13.474;2023-07-13T09:25:24;2.45;;;2.25;;
15035;SDS011;7615;48.574;13.474;2023-07-13T09:27:57;5.78;;;2.30;;
15035;SDS011;7615;48.574;13.474;2023-07-13T09:30:29;6.55;;;2.38;;
15035;SDS011;7615;48.574;13.474;2023-07-13T09:33:00;4.40;;;2.38;;
15035;SDS011;7615;48.574;13.474;2023-07-13T09:35:29;3.75;;;2.35;;
15035;SDS011;7615;48.574;13.474;2023-07-13T09:37:58;4.10;;;2.50;;
15035;SDS011;7615;48.574;13.474;2023-07-13T09:40:30;6.47;;;2.35;;
15035;SDS011;7615;48.574;13.474;2023-07-13T09:43:07;6.53;;;2.80;;
15035;SDS011;7615;48.574;13.474;2023-07-13T09:45:37;5.38;;;2.38;;
15035;SDS011;7615;48.574;13.474;2023-07-13T09:48:05;7.25;;;2.20;;
15035;SDS011;7615;48.574;13.474;2023-07-13T09:50:35;6.82;;;2.47;;
15035;SDS011;7615;48.574;13.474;2023-07-13T09:53:02;10.40;;;2.20;;
15035;SDS011;7615;48.574;13.474;2023-07-13T09:55:29;5.32;;;1.98;;
15035;SDS011;7615;48.574;13.474;2023-07-13T09:58:02;4.75;;;2.53;;
15035;SDS011;7615;48.574;13.474;2023-07-13T10:00:31;2.22;;;2.13;;
15035;SDS011;7615;48.574;13.474;2023-07-13T10:02:59;2.90;;;2.28;;
15035;SDS011;7615;48.574;13.474;2023-07-13T10:05:28;6.00;;;2.25;;
15035;SDS011;7615;48.574;13.474;2023-07-13T10:08:05;4.57;;;2.05;;
15035;SDS011;7615;48.574;13.474;2023-07-13T10:10:41;4.13;;;2.03;;
15035;SDS011;7615;48.574;13.474;2023-07-13T10:13:19;7.43;;;2.10;;
15035;SDS011;7615;48.574;13.474;2023-07-13T10:15:51;3.70;;;2.28;;
15035;SDS011;7615;48.574;13.474;2023-07-13T10:18:19;4.13;;;1.92;;
15035;SDS011;7615;48.574;13.474;2023-07-13T10:20:48;2.67;;;2.13;;
15035;SDS011;7615;48.574;13.474;2023-07-13T10:23:21;2.03;;;1.58;;
15035;SDS011;7615;48.574;13.474;2023-07-13T10:25:52;2.30;;;1.77;;
15035;SDS011;7615;48.574;13.474;2023-07-13T10:28:23;3.65;;;1.50;;
15035;SDS011;7615;48.574;13.474;2023-07-13T10:30:55;2.13;;;1.75;;
15035;SDS011;7615;48.574;13.474;2023-07-13T10:33:25;8.63;;;2.40;;
15035;SDS011;7615;48.574;13.474;2023-07-13T10:35:56;5.20;;;1.70;;
15035;SDS011;7615;48.574;13.474;2023-07-13T10:38:30;3.85;;;1.75;;
15035;SDS011;7615;48.574;13.474;2023-07-13T10:40:59;3.38;;;1.77;;
15035;SDS011;7615;48.574;13.474;2023-07-13T10:43:31;3.45;;;2.10;;
15035;SDS011;7615;48.574;13.474;2023-07-13T10:46:02;2.60;;;2.00;;
15035;SDS011;7615;48.574;13.474;2023-07-13T10:48:32;5.32;;;2.30;;
15035;SDS011;7615;48.574;13.474;2023-07-13T10:51:03;2.47;;;1.90;;
15035;SDS011;7615;48.574;13.474;2023-07-13T10:53:33;3.97;;;1.98;;
15035;SDS011;7615;48.574;13.474;2023-07-13T10:56:01;5.28;;;1.98;;
15035;SDS011;7615;48.574;13.474;2023-07-13T10:58:34;6.32;;;1.73;;
15035;SDS011;7615;48.574;13.474;2023-07-13T11:01:03;4.70;;;2.00;;
15035;SDS011;7615;48.574;13.474;2023-07-13T11:03:35;3.58;;;1.83;;
15035;SDS011;7615;48.574;13.474;2023-07-13T11:06:10;2.95;;;1.83;;
15035;SDS011;7615;48.574;13.474;2023-07-13T11:08:51;7.32;;;2.30;;
15035;SDS011;7615;48.574;13.474;2023-07-13T11:11:32;4.00;;;1.70;;
15035;SDS011;7615;48.574;13.474;2023-07-13T11:14:03;2.90;;;1.73;;
15035;SDS011;7615;48.574;13.474;2023-07-13T11:22:12;2.50;;;1.75;;
15035;SDS011;7615;48.574;13.474;2023-07-13T11:27:35;1.80;;;1.67;;
15035;SDS011;7615;48.574;13.474;2023-07-13T11:30:22;2.17;;;1.52;;
15035;SDS011;7615;48.574;13.474;2023-07-13T11:33:03;2.75;;;2.03;;
15035;SDS011;7615;48.574;13.474;2023-07-13T11:35:49;2.63;;;1.55;;
15035;SDS011;7615;48.574;13.474;2023-07-13T11:38:22;3.40;;;1.55;;
15035;SDS011;7615;48.574;13.474;2023-07-13T11:40:54;3.60;;;1.50;;
15035;SDS011;7615;48.574;13.474;2023-07-13T11:43:24;1.50;;;1.25;;
15035;SDS011;7615;48.574;13.474;2023-07-13T11:45:51;4.95;;;1.58;;
15035;SDS011;7615;48.574;13.474;2023-07-13T11:48:19;4.00;;;1.40;;
15035;SDS011;7615;48.574;13.474;2023-07-13T11:50:51;2.85;;;1.58;;
15035;SDS011;7615;48.574;13.474;2023-07-13T11:53:25;4.18;;;1.52;;
15035;SDS011;7615;48.574;13.474;2023-07-13T11:55:54;3.55;;;1.40;;
15035;SDS011;7615;48.574;13.474;2023-07-13T11:58:28;4.43;;;1.33;;
15035;SDS011;7615;48.574;13.474;2023-07-13T12:00:58;3.80;;;1.60;;
15035;SDS011;7615;48.574;13.474;2023-07-13T12:03:32;4.82;;;1.55;;
15035;SDS011;7615;48.574;13.474;2023-07-13T12:06:01;1.77;;;1.10;;
15035;SDS011;7615;48.574;13.474;2023-07-13T12:08:37;2.30;;;1.33;;
15035;SDS011;7615;48.574;13.474;2023-07-13T12:11:06;6.57;;;1.58;;
15035;SDS011;7615;48.574;13.474;2023-07-13T12:13:41;3.80;;;1.45;;
15035;SDS011;7615;48.574;13.474;2023-07-13T12:16:11;4.43;;;1.73;;
15035;SDS011;7615;48.574;13.474;2023-07-13T12:18:40;3.17;;;1.50;;
15035;SDS011;7615;48.574;13.474;2023-07-13T12:21:12;3.17;;;1.60;;
15035;SDS011;7615;48.574;13.474;2023-07-13T12:23:44;2.50;;;1.30;;
15035;SDS011;7615;48.574;13.474;2023-07-13T12:26:14;2.28;;;1.58;;
15035;SDS011;7615;48.574;13.474;2023-07-13T12:28:44;3.30;;;1.58;;
15035;SDS011;7615;48.574;13.474;2023-07-13T12:31:24;4.78;;;1.40;;
15035;SDS011;7615;48.574;13.474;2023-07-13T12:33:56;4.10;;;1.38;;
15035;SDS011;7615;48.574;13.474;2023-07-13T12:36:24;1.67;;;1.45;;
15035;SDS011;7615;48.574;13.474;2023-07-13T12:38:53;3.88;;;1.20;;
15035;SDS011;7615;48.574;13.474;2023-07-13T12:41:20;1.88;;;1.42;;
15035;SDS011;7615;48.574;13.474;2023-07-13T12:43:48;2.65;;;1.20;;
15035;SDS011;7615;48.574;13.474;2023-07-13T12:46:17;2.00;;;1.35;;
15035;SDS011;7615;48.574;13.474;2023-07-13T12:48:47;4.00;;;1.70;;
15035;SDS011;7615;48.574;13.474;2023-07-13T12:51:16;3.10;;;1.50;;
15035;SDS011;7615;48.574;13.474;2023-07-13T12:53:47;2.60;;;1.33;;
15035;SDS011;7615;48.574;13.474;2023-07-13T12:56:19;5.38;;;1.50;;
15035;SDS011;7615;48.574;13.474;2023-07-13T12:58:50;2.70;;;1.45;;
15035;SDS011;7615;48.574;13.474;2023-07-13T13:01:25;6.07;;;1.98;;
15035;SDS011;7615;48.574;13.474;2023-07-13T13:03:54;2.50;;;1.33;;
15035;SDS011;7615;48.574;13.474;2023-07-13T13:06:23;4.32;;;1.50;;
15035;SDS011;7615;48.574;13.474;2023-07-13T13:08:52;2.00;;;1.30;;
15035;SDS011;7615;48.574;13.474;2023-07-13T13:11:22;4.78;;;1.15;;
15035;SDS011;7615;48.574;13.474;2023-07-13T13:13:51;4.30;;;1.30;;
15035;SDS011;7615;48.574;13.474;2023-07-13T13:16:21;3.38;;;1.30;;
15035;SDS011;7615;48.574;13.474;2023-07-13T13:18:51;3.45;;;1.42;;
15035;SDS011;7615;48.574;13.474;2023-07-13T13:21:22;2.85;;;1.27;;
15035;SDS011;7615;48.574;13.474;2023-07-13T13:23:50;2.45;;;1.52;;
15035;SDS011;7615;48.574;13.474;2023-07-13T13:26:18;1.60;;;1.50;;
15035;SDS011;7615;48.574;13.474;2023-07-13T13:28:52;7.05;;;1.40;;
15035;SDS011;7615;48.574;13.474;2023-07-13T13:31:19;4.57;;;1.67;;
15035;SDS011;7615;48.574;13.474;2023-07-13T13:33:46;2.47;;;1.38;;
15035;SDS011;7615;48.574;13.474;2023-07-13T13:36:14;3.20;;;1.48;;
15035;SDS011;7615;48.574;13.474;2023-07-13T13:38:42;1.95;;;1.20;;
15035;SDS011;7615;48.574;13.474;2023-07-13T13:41:10;3.47;;;1.52;;
15035;SDS011;7615;48.574;13.474;2023-07-13T13:43:38;3.55;;;1.17;;
15035;SDS011;7615;48.574;13.474;2023-07-13T13:46:11;4.55;;;1.50;;
15035;SDS011;7615;48.574;13.474;2023-07-13T13:48:41;2.33;;;1.40;;
15035;SDS011;7615;48.574;13.474;2023-07-13T13:51:13;1.60;;;1.40;;
15035;SDS011;7615;48.574;13.474;2023-07-13T13:53:42;1.80;;;1.35;;
15035;SDS011;7615;48.574;13.474;2023-07-13T13:56:10;1.90;;;1.55;;
15035;SDS011;7615;48.574;13.474;2023-07-13T13:58:37;5.97;;;1.50;;
15035;SDS011;7615;48.574;13.474;2023-07-13T14:01:04;4.97;;;1.60;;
15035;SDS011;7615;48.574;13.474;2023-07-13T14:03:37;2.03;;;1.50;;
15035;SDS011;7615;48.574;13.474;2023-07-13T14:06:04;2.90;;;1.40;;
15035;SDS011;7615;48.574;13.474;2023-07-13T14:08:32;2.78;;;1.48;;
15035;SDS011;7615;48.574;13.474;2023-07-13T14:10:58;2.20;;;1.27;;
15035;SDS011;7615;48.574;13.474;2023-07-13T14:13:27;3.17;;;1.50;;
15035;SDS011;7615;48.574;13.474;2023-07-13T14:15:59;4.65;;;1.48;;
15035;SDS011;7615;48.574;13.474;2023-07-13T14:18:28;2.05;;;1.30;;
15035;SDS011;7615;48.574;13.474;2023-07-13T14:20:55;3.72;;;1.40;;
15035;SDS011;7615;48.574;13.474;2023-07-13T14:23:22;4.30;;;1.60;;
15035;SDS011;7615;48.574;13.474;2023-07-13T14:25:50;2.83;;;1.60;;
15035;SDS011;7615;48.574;13.474;2023-07-13T14:28:20;2.15;;;1.50;;
15035;SDS011;7615;48.574;13.474;2023-07-13T14:30:48;3.03;;;1.50;;
15035;SDS011;7615;48.574;13.474;2023-07-13T14:33:15;7.45;;;1.60;;
15035;SDS011;7615;48.574;13.474;2023-07-13T14:35:44;7.55;;;2.17;;
15035;SDS011;7615;48.574;13.474;2023-07-13T14:38:13;2.40;;;1.45;;
15035;SDS011;7615;48.574;13.474;2023-07-13T14:40:40;3.00;;;1.75;;
15035;SDS011;7615;48.574;13.474;2023-07-13T14:43:09;7.38;;;1.70;;
15035;SDS011;7615;48.574;13.474;2023-07-13T14:45:38;3.22;;;1.70;;
15035;SDS011;7615;48.574;13.474;2023-07-13T14:48:10;2.42;;;1.40;;
15035;SDS011;7615;48.574;13.474;2023-07-13T14:50:39;2.72;;;1.70;;
15035;SDS011;7615;48.574;13.474;2023-07-13T14:53:10;1.52;;;1.33;;
15035;SDS011;7615;48.574;13.474;2023-07-13T14:55:37;2.13;;;1.60;;
15035;SDS011;7615;48.574;13.474;2023-07-13T14:58:05;3.13;;;1.70;;
15035;SDS011;7615;48.574;13.474;2023-07-13T15:00:32;2.13;;;1.50;;
15035;SDS011;7615;48.574;13.474;2023-07-13T15:03:00;2.58;;;1.60;;
15035;SDS011;7615;48.574;13.474;2023-07-13T15:05:28;2.33;;;1.40;;
15035;SDS011;7615;48.574;13.474;2023-07-13T15:07:56;4.57;;;1.73;;
15035;SDS011;7615;48.574;13.474;2023-07-13T15:10:26;4.50;;;3.55;;
15035;SDS011;7615;48.574;13.474;2023-07-13T15:12:56;2.15;;;1.95;;
15035;SDS011;7615;48.574;13.474;2023-07-13T15:15:25;3.90;;;1.60;;
15035;SDS011;7615;48.574;13.474;2023-07-13T15:17:53;7.28;;;4.25;;
15035;SDS011;7615;48.574;13.474;2023-07-13T15:20:29;7.32;;;6.00;;